sensor_id;sensor_type;location;lat;lon;timestamp;pressure;altitude;pressure_sealevel;temperature;humidity
24230;BME280;12362;50.004;8.006;2022-11-20T00:01:21;100270.97;;;3.17;100.00
24230;BME280;12362;50.004;8.006;2022-11-20T00:03:47;100261.47;;;3.22;100.00
24230;BME280;12362;50.004;8.006;2022-11-20T00:06:15;100271.69;;;3.23;100.00
24230;BME280;12362;50.004;8.006;2022-11-20T00:08:42;100269.06;;;3.26;100.00
24230;BME280;12362;50.004;8.006;2022-11-20T00:11:13;100276.63;;;3.32;100.00
24230;BME280;12362;50.004;8.006;2022-11-20T00:13:39;100269.78;;;3.33;100.00
24230;BME280;12362;50.004;8.006;2022-11-20T00:16:06;100274.97;;;3.30;100.00
24230;BME280;12362;50.004;8.006;2022-11-20T00:18:33;100273.75;;;3.46;100.00
24230;BME280;12362;50.004;8.006;2022-11-20T00:21:22;100265.97;;;3.50;100.00
24230;BME280;12362;50.004;8.006;2022-11-20T00:23:49;100264.53;;;3.37;100.00
24230;BME280;12362;50.004;8.006;2022-11-20T00:26:17;100270.81;;;3.24;100.00
24230;BME280;12362;50.004;8.006;2022-11-20T00:28:43;100269.13;;;3.23;100.00
24230;BME280;12362;50.004;8.006;2022-11-20T00:31:12;100268.25;;;3.24;100.00
24230;BME280;12362;50.004;8.006;2022-11-20T00:33:38;100265.63;;;3.26;100.00
24230;BME280;12362;50.004;8.006;2022-11-20T00:36:11;100263.03;;;3.29;100.00
24230;BME280;12362;50.004;8.006;2022-11-20T00:38:37;100262.09;;;3.33;100.00
24230;BME280;12362;50.004;8.006;2022-11-20T00:41:07;100263.97;;;3.25;100.00
24230;BME280;12362;50.004;8.006;2022-11-20T00:43:33;100265.69;;;3.24;100.00
24230;BME280;12362;50.004;8.006;2022-11-20T00:46:01;100263.88;;;3.29;100.00
24230;BME280;12362;50.004;8.006;2022-11-20T00:48:26;100262.03;;;3.36;100.00
24230;BME280;12362;50.004;8.006;2022-11-20T00:50:53;100256.03;;;3.35;100.00
24230;BME280;12362;50.004;8.006;2022-11-20T00:53:18;100257.72;;;3.36;100.00
24230;BME280;12362;50.004;8.006;2022-11-20T00:55:53;100254.28;;;3.37;100.00
24230;BME280;12362;50.004;8.006;2022-11-20T00:58:18;100265.72;;;3.23;100.00
24230;BME280;12362;50.004;8.006;2022-11-20T01:00:43;100258.91;;;3.22;100.00
24230;BME280;12362;50.004;8.006;2022-11-20T01:03:09;100264.97;;;3.18;100.00
24230;BME280;12362;50.004;8.006;2022-11-20T01:05:35;100261.47;;;3.22;100.00
24230;BME280;12362;50.004;8.006;2022-11-20T01:08:01;100260.75;;;3.15;100.00
24230;BME280;12362;50.004;8.006;2022-11-20T01:10:26;100254.81;;;3.13;100.00
24230;BME280;12362;50.004;8.006;2022-11-20T01:12:51;100262.34;;;3.21;100.00
24230;BME280;12362;50.004;8.006;2022-11-20T01:15:37;100267.25;;;3.31;100.00
24230;BME280;12362;50.004;8.006;2022-11-20T01:18:02;100262.28;;;3.24;100.00
24230;BME280;12362;50.004;8.006;2022-11-20T01:20:28;100258.00;;;3.24;100.00
24230;BME280;12362;50.004;8.006;2022-11-20T01:22:53;100262.91;;;3.35;100.00
24230;BME280;12362;50.004;8.006;2022-11-20T01:25:19;100257.16;;;3.22;100.00
24230;BME280;12362;50.004;8.006;2022-11-20T01:27:44;100252.81;;;3.27;100.00
24230;BME280;12362;50.004;8.006;2022-11-20T01:30:10;100257.06;;;3.27;100.00
24230;BME280;12362;50.004;8.006;2022-11-20T01:32:35;100252.75;;;3.30;100.00
24230;BME280;12362;50.004;8.006;2022-11-20T01:35:00;100258.47;;;3.41;100.00
24230;BME280;12362;50.004;8.006;2022-11-20T01:37:26;100261.69;;;3.49;100.00
24230;BME280;12362;50.004;8.006;2022-11-20T01:39:51;100257.56;;;3.44;100.00
24230;BME280;12362;50.004;8.006;2022-11-20T01:42:17;100248.97;;;3.45;100.00
24230;BME280;12362;50.004;8.006;2022-11-20T01:45:01;100247.22;;;3.47;100.00
24230;BME280;12362;50.004;8.006;2022-11-20T01:50:20;100244.38;;;3.58;100.00
24230;BME280;12362;50.004;8.006;2022-11-20T01:52:56;100251.22;;;3.58;100.00
24230;BME280;12362;50.004;8.006;2022-11-20T01:55:29;100242.66;;;3.59;100.00
24230;BME280;12362;50.004;8.006;2022-11-20T01:57:56;100242.63;;;3.60;100.00
24230;BME280;12362;50.004;8.006;2022-11-20T02:00:21;100245.22;;;3.59;100.00
24230;BME280;12362;50.004;8.006;2022-11-20T02:03:16;100247.88;;;3.55;100.00
24230;BME280;12362;50.004;8.006;2022-11-20T02:05:51;100242.72;;;3.56;100.00
24230;BME280;12362;50.004;8.006;2022-11-20T02:08:21;100246.09;;;3.58;100.00
24230;BME280;12362;50.004;8.006;2022-11-20T02:10:46;100240.19;;;3.55;100.00
24230;BME280;12362;50.004;8.006;2022-11-20T02:13:12;100239.44;;;3.51;100.00
24230;BME280;12362;50.004;8.006;2022-11-20T02:15:56;100235.75;;;3.61;100.00
24230;BME280;12362;50.004;8.006;2022-11-20T02:18:21;100219.81;;;3.49;100.00
24230;BME280;12362;50.004;8.006;2022-11-20T02:20:51;100220.97;;;3.36;100.00
24230;BME280;12362;50.004;8.006;2022-11-20T02:23:36;100227.34;;;3.55;100.00
24230;BME280;12362;50.004;8.006;2022-11-20T02:26:05;100230.69;;;3.58;100.00
24230;BME280;12362;50.004;8.006;2022-11-20T02:28:32;100233.25;;;3.59;100.00
24230;BME280;12362;50.004;8.006;2022-11-20T02:30:57;100232.59;;;3.50;100.00
24230;BME280;12362;50.004;8.006;2022-11-20T02:33:22;100217.16;;;3.53;100.00
24230;BME280;12362;50.004;8.006;2022-11-20T02:35:48;100209.34;;;3.56;100.00
24230;BME280;12362;50.004;8.006;2022-11-20T02:38:14;100220.31;;;3.62;100.00
24230;BME280;12362;50.004;8.006;2022-11-20T02:40:40;100217.16;;;3.53;100.00
24230;BME280;12362;50.004;8.006;2022-11-20T02:43:05;100212.66;;;3.61;100.00
24230;BME280;12362;50.004;8.006;2022-11-20T02:45:31;100225.44;;;3.62;100.00
24230;BME280;12362;50.004;8.006;2022-11-20T02:47:57;100218.44;;;3.70;100.00
24230;BME280;12362;50.004;8.006;2022-11-20T02:50:22;100221.00;;;3.70;100.00
24230;BME280;12362;50.004;8.006;2022-11-20T02:52:48;100225.44;;;3.62;100.00
24230;BME280;12362;50.004;8.006;2022-11-20T02:55:13;100221.19;;;3.61;100.00
24230;BME280;12362;50.004;8.006;2022-11-20T02:57:39;100223.81;;;3.60;100.00
24230;BME280;12362;50.004;8.006;2022-11-20T03:00:05;100221.25;;;3.60;100.00
24230;BME280;12362;50.004;8.006;2022-11-20T03:02:32;100213.44;;;3.64;100.00
24230;BME280;12362;50.004;8.006;2022-11-20T03:04:57;100200.56;;;3.66;100.00
24230;BME280;12362;50.004;8.006;2022-11-20T03:07:23;100210.75;;;3.69;100.00
24230;BME280;12362;50.004;8.006;2022-11-20T03:09:48;100198.19;;;3.57;100.00
24230;BME280;12362;50.004;8.006;2022-11-20T03:12:14;100210.25;;;3.55;100.00
24230;BME280;12362;50.004;8.006;2022-11-20T03:14:39;100228.47;;;3.45;100.00
24230;BME280;12362;50.004;8.006;2022-11-20T03:17:04;100229.38;;;3.42;100.00
24230;BME280;12362;50.004;8.006;2022-11-20T03:19:30;100217.03;;;3.56;100.00
24230;BME280;12362;50.004;8.006;2022-11-20T03:21:55;100210.03;;;3.64;100.00
24230;BME280;12362;50.004;8.006;2022-11-20T03:24:21;100198.78;;;3.68;100.00
24230;BME280;12362;50.004;8.006;2022-11-20T03:26:46;100197.25;;;3.61;100.00
24230;BME280;12362;50.004;8.006;2022-11-20T03:29:12;100210.16;;;3.58;100.00
24230;BME280;12362;50.004;8.006;2022-11-20T03:31:39;100207.81;;;3.49;100.00
24230;BME280;12362;50.004;8.006;2022-11-20T03:34:06;100201.75;;;3.53;100.00
24230;BME280;12362;50.004;8.006;2022-11-20T03:36:33;100198.00;;;3.66;100.00
24230;BME280;12362;50.004;8.006;2022-11-20T03:39:00;100203.28;;;3.60;100.00
24230;BME280;12362;50.004;8.006;2022-11-20T03:41:28;100196.28;;;3.66;100.00
24230;BME280;12362;50.004;8.006;2022-11-20T03:43:56;100202.94;;;3.73;100.00
24230;BME280;12362;50.004;8.006;2022-11-20T03:46:22;100194.50;;;3.68;100.00
24230;BME280;12362;50.004;8.006;2022-11-20T03:48:48;100190.94;;;3.74;100.00
24230;BME280;12362;50.004;8.006;2022-11-20T03:51:25;100197.91;;;3.69;100.00
24230;BME280;12362;50.004;8.006;2022-11-20T03:53:53;100192.78;;;3.69;100.00
24230;BME280;12362;50.004;8.006;2022-11-20T03:56:22;100184.28;;;3.67;100.00
24230;BME280;12362;50.004;8.006;2022-11-20T03:58:48;100182.44;;;3.72;100.00
24230;BME280;12362;50.004;8.006;2022-11-20T04:01:22;100181.56;;;3.73;100.00
24230;BME280;12362;50.004;8.006;2022-11-20T04:03:48;100186.63;;;3.76;100.00
24230;BME280;12362;50.004;8.006;2022-11-20T04:06:18;100174.66;;;3.75;100.00
24230;BME280;12362;50.004;8.006;2022-11-20T04:08:43;100173.94;;;3.70;100.00
24230;BME280;12362;50.004;8.006;2022-11-20T04:11:26;100191.81;;;3.73;100.00
24230;BME280;12362;50.004;8.006;2022-11-20T04:13:55;100190.38;;;3.63;100.00
24230;BME280;12362;50.004;8.006;2022-11-20T04:16:22;100186.00;;;3.66;100.00
24230;BME280;12362;50.004;8.006;2022-11-20T04:18:54;100183.19;;;3.75;100.00
24230;BME280;12362;50.004;8.006;2022-11-20T04:21:20;100192.66;;;3.73;100.00
24230;BME280;12362;50.004;8.006;2022-11-20T04:23:46;100174.50;;;3.81;100.00
24230;BME280;12362;50.004;8.006;2022-11-20T04:26:12;100174.63;;;3.76;100.00
24230;BME280;12362;50.004;8.006;2022-11-20T04:28:38;100168.50;;;3.82;100.00
24230;BME280;12362;50.004;8.006;2022-11-20T04:31:09;100178.06;;;3.77;100.00
24230;BME280;12362;50.004;8.006;2022-11-20T04:33:35;100168.38;;;3.86;100.00
24230;BME280;12362;50.004;8.006;2022-11-20T04:36:03;100182.09;;;3.85;100.00
24230;BME280;12362;50.004;8.006;2022-11-20T04:38:29;100176.25;;;3.80;100.00
24230;BME280;12362;50.004;8.006;2022-11-20T04:41:02;100169.47;;;3.76;100.00
24230;BME280;12362;50.004;8.006;2022-11-20T04:43:28;100170.25;;;3.80;100.00
24230;BME280;12362;50.004;8.006;2022-11-20T04:45:55;100169.28;;;3.84;100.00
24230;BME280;12362;50.004;8.006;2022-11-20T04:48:21;100177.81;;;3.86;100.00
24230;BME280;12362;50.004;8.006;2022-11-20T04:50:47;100180.44;;;3.84;100.00
24230;BME280;12362;50.004;8.006;2022-11-20T04:53:13;100177.25;;;3.75;100.00
24230;BME280;12362;50.004;8.006;2022-11-20T04:55:38;100174.69;;;3.73;100.00
24230;BME280;12362;50.004;8.006;2022-11-20T04:58:03;100188.19;;;3.81;100.00
24230;BME280;12362;50.004;8.006;2022-11-20T05:00:29;100176.84;;;3.90;100.00
24230;BME280;12362;50.004;8.006;2022-11-20T05:02:54;100180.22;;;3.92;100.00
24230;BME280;12362;50.004;8.006;2022-11-20T05:05:20;100171.56;;;3.96;100.00
24230;BME280;12362;50.004;8.006;2022-11-20T05:07:45;100170.72;;;3.95;100.00
24230;BME280;12362;50.004;8.006;2022-11-20T05:10:10;100176.75;;;3.93;100.00
24230;BME280;12362;50.004;8.006;2022-11-20T05:12:36;100169.94;;;3.92;100.00
24230;BME280;12362;50.004;8.006;2022-11-20T05:15:01;100180.13;;;3.95;100.00
24230;BME280;12362;50.004;8.006;2022-11-20T05:17:27;100172.31;;;3.99;100.00
24230;BME280;12362;50.004;8.006;2022-11-20T05:19:52;100173.25;;;3.97;100.00
24230;BME280;12362;50.004;8.006;2022-11-20T05:22:18;100173.28;;;3.95;100.00
24230;BME280;12362;50.004;8.006;2022-11-20T05:24:43;100168.16;;;3.95;100.00
24230;BME280;12362;50.004;8.006;2022-11-20T05:27:08;100167.47;;;3.87;100.00
24230;BME280;12362;50.004;8.006;2022-11-20T05:29:34;100153.97;;;3.81;100.00
24230;BME280;12362;50.004;8.006;2022-11-20T05:31:59;100160.75;;;3.83;100.00
24230;BME280;12362;50.004;8.006;2022-11-20T05:34:25;100152.97;;;3.86;100.00
24230;BME280;12362;50.004;8.006;2022-11-20T05:36:50;100163.22;;;3.86;100.00
24230;BME280;12362;50.004;8.006;2022-11-20T05:39:17;100168.16;;;3.95;100.00
24230;BME280;12362;50.004;8.006;2022-11-20T05:41:42;100174.06;;;3.99;100.00
24230;BME280;12362;50.004;8.006;2022-11-20T05:44:10;100162.97;;;3.97;100.00
24230;BME280;12362;50.004;8.006;2022-11-20T05:46:36;100160.66;;;3.88;100.00
24230;BME280;12362;50.004;8.006;2022-11-20T05:49:01;100158.88;;;3.90;100.00
24230;BME280;12362;50.004;8.006;2022-11-20T05:51:27;100154.47;;;3.95;100.00
24230;BME280;12362;50.004;8.006;2022-11-20T05:53:53;100148.63;;;3.88;100.00
24230;BME280;12362;50.004;8.006;2022-11-20T05:56:20;100150.19;;;3.95;100.00
24230;BME280;12362;50.004;8.006;2022-11-20T05:58:47;100145.94;;;3.94;100.00
24230;BME280;12362;50.004;8.006;2022-11-20T06:01:17;100142.56;;;3.91;100.00
24230;BME280;12362;50.004;8.006;2022-11-20T06:03:43;100141.00;;;3.85;100.00
24230;BME280;12362;50.004;8.006;2022-11-20T06:06:11;100146.13;;;3.87;100.00
24230;BME280;12362;50.004;8.006;2022-11-20T06:08:37;100143.44;;;3.91;100.00
24230;BME280;12362;50.004;8.006;2022-11-20T06:11:09;100145.03;;;3.95;100.00
24230;BME280;12362;50.004;8.006;2022-11-20T06:13:36;100145.06;;;3.94;100.00
24230;BME280;12362;50.004;8.006;2022-11-20T06:16:02;100136.66;;;3.89;100.00
24230;BME280;12362;50.004;8.006;2022-11-20T06:18:29;100140.22;;;3.83;100.00
24230;BME280;12362;50.004;8.006;2022-11-20T06:21:06;100153.63;;;3.94;100.00
24230;BME280;12362;50.004;8.006;2022-11-20T06:23:34;100149.44;;;3.90;100.00
24230;BME280;12362;50.004;8.006;2022-11-20T06:26:11;100151.97;;;3.92;100.00
24230;BME280;12362;50.004;8.006;2022-11-20T06:28:37;100156.38;;;3.87;100.00
24230;BME280;12362;50.004;8.006;2022-11-20T06:31:03;100150.38;;;3.86;100.00
24230;BME280;12362;50.004;8.006;2022-11-20T06:33:29;100148.06;;;3.79;100.00
24230;BME280;12362;50.004;8.006;2022-11-20T06:35:59;100149.72;;;3.80;100.00
24230;BME280;12362;50.004;8.006;2022-11-20T06:38:25;100141.50;;;3.99;100.00
24230;BME280;12362;50.004;8.006;2022-11-20T06:40:51;100157.88;;;3.95;100.00
24230;BME280;12362;50.004;8.006;2022-11-20T06:43:16;100157.78;;;3.98;100.00
24230;BME280;12362;50.004;8.006;2022-11-20T06:45:42;100156.41;;;3.85;100.00
24230;BME280;12362;50.004;8.006;2022-11-20T06:48:08;100163.09;;;3.92;100.00
24230;BME280;12362;50.004;8.006;2022-11-20T06:50:36;100158.72;;;3.96;100.00
24230;BME280;12362;50.004;8.006;2022-11-20T06:53:03;100163.03;;;3.95;100.00
24230;BME280;12362;50.004;8.006;2022-11-20T06:55:30;100175.84;;;3.95;100.00
24230;BME280;12362;50.004;8.006;2022-11-20T06:57:59;100165.47;;;3.98;100.00
24230;BME280;12362;50.004;8.006;2022-11-20T07:00:25;100161.16;;;4.00;100.00
24230;BME280;12362;50.004;8.006;2022-11-20T07:02:50;100169.66;;;4.02;100.00
24230;BME280;12362;50.004;8.006;2022-11-20T07:05:16;100163.69;;;4.02;100.00
24230;BME280;12362;50.004;8.006;2022-11-20T07:07:42;100159.47;;;3.99;100.00
24230;BME280;12362;50.004;8.006;2022-11-20T07:10:08;100170.56;;;4.01;100.00
24230;BME280;12362;50.004;8.006;2022-11-20T07:12:33;100170.56;;;4.01;100.00
24230;BME280;12362;50.004;8.006;2022-11-20T07:14:59;100163.69;;;4.02;100.00
24230;BME280;12362;50.004;8.006;2022-11-20T07:17:24;100159.53;;;3.98;100.00
24230;BME280;12362;50.004;8.006;2022-11-20T07:19:49;100180.00;;;4.01;100.00
24230;BME280;12362;50.004;8.006;2022-11-20T07:22:15;100173.75;;;4.09;100.00
24230;BME280;12362;50.004;8.006;2022-11-20T07:24:40;100178.69;;;4.17;100.00
24230;BME280;12362;50.004;8.006;2022-11-20T07:27:05;100176.97;;;4.17;100.00
24230;BME280;12362;50.004;8.006;2022-11-20T07:29:31;100173.34;;;4.24;100.00
24230;BME280;12362;50.004;8.006;2022-11-20T07:31:56;100179.47;;;4.20;100.00
24230;BME280;12362;50.004;8.006;2022-11-20T07:34:22;100187.19;;;4.20;100.00
24230;BME280;12362;50.004;8.006;2022-11-20T07:36:48;100187.06;;;4.23;100.00
24230;BME280;12362;50.004;8.006;2022-11-20T07:39:35;100186.13;;;4.27;100.00
24230;BME280;12362;50.004;8.006;2022-11-20T07:42:00;100186.03;;;4.30;100.00
24230;BME280;12362;50.004;8.006;2022-11-20T07:44:26;100184.34;;;4.29;100.00
24230;BME280;12362;50.004;8.006;2022-11-20T07:46:51;100190.81;;;4.12;100.00
24230;BME280;12362;50.004;8.006;2022-11-20T07:49:16;100188.09;;;4.18;100.00
24230;BME280;12362;50.004;8.006;2022-11-20T07:51:42;100183.56;;;4.27;100.00
24230;BME280;12362;50.004;8.006;2022-11-20T07:54:07;100189.16;;;4.41;100.00
24230;BME280;12362;50.004;8.006;2022-11-20T07:56:35;100192.63;;;4.40;100.00
24230;BME280;12362;50.004;8.006;2022-11-20T07:59:01;100185.75;;;4.41;100.00
24230;BME280;12362;50.004;8.006;2022-11-20T08:01:26;100187.50;;;4.39;100.00
24230;BME280;12362;50.004;8.006;2022-11-20T08:03:52;100191.06;;;4.35;100.00
24230;BME280;12362;50.004;8.006;2022-11-20T08:06:17;100193.09;;;4.52;100.00
24230;BME280;12362;50.004;8.006;2022-11-20T08:08:44;100188.56;;;4.62;100.00
24230;BME280;12362;50.004;8.006;2022-11-20T08:11:10;100193.66;;;4.63;100.00
24230;BME280;12362;50.004;8.006;2022-11-20T08:13:54;100198.03;;;4.60;100.00
24230;BME280;12362;50.004;8.006;2022-11-20T08:19:07;100192.34;;;4.79;100.00
24230;BME280;12362;50.004;8.006;2022-11-20T08:21:33;100187.34;;;4.75;100.00
24230;BME280;12362;50.004;8.006;2022-11-20T08:23:59;100201.00;;;4.75;100.00
24230;BME280;12362;50.004;8.006;2022-11-20T08:26:24;100199.59;;;4.65;100.00
24230;BME280;12362;50.004;8.006;2022-11-20T08:28:56;100201.06;;;4.74;100.00
24230;BME280;12362;50.004;8.006;2022-11-20T08:31:26;100197.69;;;4.73;100.00
24230;BME280;12362;50.004;8.006;2022-11-20T08:33:52;100198.81;;;4.92;100.00
24230;BME280;12362;50.004;8.006;2022-11-20T08:36:18;100203.47;;;5.09;100.00
24230;BME280;12362;50.004;8.006;2022-11-20T08:38:51;100206.75;;;4.85;100.00
24230;BME280;12362;50.004;8.006;2022-11-20T08:41:17;100199.31;;;4.76;100.00
24230;BME280;12362;50.004;8.006;2022-11-20T08:44:09;100210.69;;;4.67;100.00
24230;BME280;12362;50.004;8.006;2022-11-20T08:46:39;100209.38;;;4.83;100.00
24230;BME280;12362;50.004;8.006;2022-11-20T08:49:08;100206.44;;;4.95;100.00
24230;BME280;12362;50.004;8.006;2022-11-20T08:51:34;100212.25;;;5.02;100.00
24230;BME280;12362;50.004;8.006;2022-11-20T08:54:00;100216.00;;;4.90;100.00
24230;BME280;12362;50.004;8.006;2022-11-20T08:56:26;100219.84;;;5.06;100.00
24230;BME280;12362;50.004;8.006;2022-11-20T08:58:52;100214.97;;;4.97;100.00
24230;BME280;12362;50.004;8.006;2022-11-20T09:01:18;100211.59;;;4.95;100.00
24230;BME280;12362;50.004;8.006;2022-11-20T09:03:46;100218.19;;;5.04;100.00
24230;BME280;12362;50.004;8.006;2022-11-20T09:06:12;100215.41;;;4.82;100.00
24230;BME280;12362;50.004;8.006;2022-11-20T09:08:38;100220.34;;;4.88;100.00
24230;BME280;12362;50.004;8.006;2022-11-20T09:11:04;100220.53;;;4.82;100.00
24230;BME280;12362;50.004;8.006;2022-11-20T09:13:31;100219.66;;;4.83;100.00
24230;BME280;12362;50.004;8.006;2022-11-20T09:15:59;100217.22;;;4.79;100.00
24230;BME280;12362;50.004;8.006;2022-11-20T09:18:26;100210.94;;;4.87;100.00
24230;BME280;12362;50.004;8.006;2022-11-20T09:20:51;100206.31;;;5.00;100.00
24230;BME280;12362;50.004;8.006;2022-11-20T09:23:17;100212.19;;;5.03;100.00
24230;BME280;12362;50.004;8.006;2022-11-20T09:25:43;100207.44;;;5.19;100.00
24230;BME280;12362;50.004;8.006;2022-11-20T09:28:10;100206.69;;;5.15;100.00
24230;BME280;12362;50.004;8.006;2022-11-20T09:30:35;100211.91;;;5.14;100.00
24230;BME280;12362;50.004;8.006;2022-11-20T09:33:05;100214.47;;;5.14;100.00
24230;BME280;12362;50.004;8.006;2022-11-20T09:35:32;100204.88;;;5.19;100.00
24230;BME280;12362;50.004;8.006;2022-11-20T09:37:57;100202.94;;;5.25;100.00
24230;BME280;12362;50.004;8.006;2022-11-20T09:40:28;100216.69;;;5.26;100.00
24230;BME280;12362;50.004;8.006;2022-11-20T09:43:24;100211.78;;;5.17;100.00
24230;BME280;12362;50.004;8.006;2022-11-20T09:54:14;100212.88;;;5.10;100.00
24230;BME280;12362;50.004;8.006;2022-11-20T09:56:45;100206.75;;;5.14;100.00
24230;BME280;12362;50.004;8.006;2022-11-20T09:59:39;100203.09;;;5.21;100.00
24230;BME280;12362;50.004;8.006;2022-11-20T10:02:30;100207.28;;;5.23;100.00
24230;BME280;12362;50.004;8.006;2022-11-20T10:05:26;100205.06;;;5.13;100.00
24230;BME280;12362;50.004;8.006;2022-11-20T10:10:38;100200.28;;;5.28;100.00
24230;BME280;12362;50.004;8.006;2022-11-20T10:26:56;100179.13;;;5.72;100.00
24230;BME280;12362;50.004;8.006;2022-11-20T10:29:33;100170.81;;;5.64;100.00
24230;BME280;12362;50.004;8.006;2022-11-20T10:32:11;100174.19;;;5.66;100.00
24230;BME280;12362;50.004;8.006;2022-11-20T10:35:01;100176.25;;;5.55;100.00
24230;BME280;12362;50.004;8.006;2022-11-20T10:37:30;100168.06;;;5.42;100.00
24230;BME280;12362;50.004;8.006;2022-11-20T10:43:13;100163.63;;;5.73;100.00
24230;BME280;12362;50.004;8.006;2022-11-20T10:48:10;100158.88;;;5.61;100.00
24230;BME280;12362;50.004;8.006;2022-11-20T10:50:45;100155.44;;;5.61;100.00
24230;BME280;12362;50.004;8.006;2022-11-20T10:56:17;100145.38;;;5.55;100.00
24230;BME280;12362;50.004;8.006;2022-11-20T10:59:04;100146.00;;;5.87;100.00
24230;BME280;12362;50.004;8.006;2022-11-20T11:01:40;100147.81;;;5.85;100.00
24230;BME280;12362;50.004;8.006;2022-11-20T11:07:05;100136.72;;;5.83;100.00
24230;BME280;12362;50.004;8.006;2022-11-20T11:09:40;100136.59;;;5.86;100.00
24230;BME280;12362;50.004;8.006;2022-11-20T11:12:08;100128.28;;;5.78;100.00
24230;BME280;12362;50.004;8.006;2022-11-20T11:14:53;100125.03;;;5.98;100.00
24230;BME280;12362;50.004;8.006;2022-11-20T11:17:32;100124.44;;;6.14;100.00
24230;BME280;12362;50.004;8.006;2022-11-20T11:20:04;100130.22;;;6.66;100.00
24230;BME280;12362;50.004;8.006;2022-11-20T11:22:32;100121.09;;;6.81;100.00
24230;BME280;12362;50.004;8.006;2022-11-20T11:24:59;100123.81;;;6.76;100.00
24230;BME280;12362;50.004;8.006;2022-11-20T11:27:24;100113.75;;;6.70;100.00
24230;BME280;12362;50.004;8.006;2022-11-20T11:30:02;100116.69;;;6.83;100.00
24230;BME280;12362;50.004;8.006;2022-11-20T11:32:32;100110.75;;;6.36;100.00
24230;BME280;12362;50.004;8.006;2022-11-20T11:35:04;100119.56;;;6.29;100.00
24230;BME280;12362;50.004;8.006;2022-11-20T11:37:35;100117.69;;;6.34;100.00
24230;BME280;12362;50.004;8.006;2022-11-20T11:40:03;100108.94;;;6.61;100.00
24230;BME280;12362;50.004;8.006;2022-11-20T11:42:30;100106.50;;;6.80;100.00
24230;BME280;12362;50.004;8.006;2022-11-20T11:44:58;100091.28;;;6.95;100.00
24230;BME280;12362;50.004;8.006;2022-11-20T11:47:31;100090.97;;;7.03;100.00
24230;BME280;12362;50.004;8.006;2022-11-20T11:52:41;100088.91;;;6.89;100.00
24230;BME280;12362;50.004;8.006;2022-11-20T11:55:14;100088.81;;;6.92;100.00
24230;BME280;12362;50.004;8.006;2022-11-20T11:57:49;100098.03;;;6.76;100.00
24230;BME280;12362;50.004;8.006;2022-11-20T12:00:21;100089.03;;;6.65;100.00
24230;BME280;12362;50.004;8.006;2022-11-20T12:05:37;100081.66;;;6.77;100.00
24230;BME280;12362;50.004;8.006;2022-11-20T12:11:14;100069.84;;;6.93;100.00
24230;BME280;12362;50.004;8.006;2022-11-20T12:16:12;100065.53;;;6.72;100.00
24230;BME280;12362;50.004;8.006;2022-11-20T12:18:38;100070.78;;;6.69;100.00
24230;BME280;12362;50.004;8.006;2022-11-20T12:26:47;100054.22;;;6.75;100.00
24230;BME280;12362;50.004;8.006;2022-11-20T12:29:52;100049.25;;;6.70;100.00
24230;BME280;12362;50.004;8.006;2022-11-20T12:40:38;100032.81;;;7.16;100.00
24230;BME280;12362;50.004;8.006;2022-11-20T12:43:22;100034.03;;;7.27;100.00
24230;BME280;12362;50.004;8.006;2022-11-20T12:46:16;100030.94;;;7.39;100.00
24230;BME280;12362;50.004;8.006;2022-11-20T12:51:51;100030.75;;;7.43;100.00
24230;BME280;12362;50.004;8.006;2022-11-20T13:00:08;100027.84;;;7.31;100.00
24230;BME280;12362;50.004;8.006;2022-11-20T13:05:27;100020.59;;;7.39;100.00
24230;BME280;12362;50.004;8.006;2022-11-20T13:07:57;100018.28;;;7.33;100.00
24230;BME280;12362;50.004;8.006;2022-11-20T13:10:43;100016.53;;;7.33;100.00
24230;BME280;12362;50.004;8.006;2022-11-20T13:13:17;100007.56;;;7.42;100.00
24230;BME280;12362;50.004;8.006;2022-11-20T13:16:05;100010.38;;;7.76;100.00
24230;BME280;12362;50.004;8.006;2022-11-20T13:18:38;100005.03;;;7.99;100.00
24230;BME280;12362;50.004;8.006;2022-11-20T13:21:35;100000.84;;;7.96;100.00
24230;BME280;12362;50.004;8.006;2022-11-20T13:26:45;99988.63;;;8.00;100.00
24230;BME280;12362;50.004;8.006;2022-11-20T13:29:16;99987.41;;;7.88;100.00
24230;BME280;12362;50.004;8.006;2022-11-20T13:32:22;99986.84;;;7.82;100.00
24230;BME280;12362;50.004;8.006;2022-11-20T13:34:59;99980.41;;;7.72;100.00
24230;BME280;12362;50.004;8.006;2022-11-20T13:40:22;99977.78;;;7.73;100.00
24230;BME280;12362;50.004;8.006;2022-11-20T13:43:00;99982.19;;;7.31;100.00
24230;BME280;12362;50.004;8.006;2022-11-20T13:45:30;99970.22;;;7.49;100.00
24230;BME280;12362;50.004;8.006;2022-11-20T13:47:57;99968.09;;;7.58;100.00
24230;BME280;12362;50.004;8.006;2022-11-20T13:51:22;99966.88;;;7.67;100.00
24230;BME280;12362;50.004;8.006;2022-11-20T14:02:29;99953.09;;;7.66;100.00
24230;BME280;12362;50.004;8.006;2022-11-20T14:04:58;99960.84;;;7.66;100.00
24230;BME280;12362;50.004;8.006;2022-11-20T14:07:35;99950.97;;;7.37;100.00
24230;BME280;12362;50.004;8.006;2022-11-20T14:10:05;99957.75;;;7.20;100.00
24230;BME280;12362;50.004;8.006;2022-11-20T14:12:33;99949.41;;;7.14;100.00
24230;BME280;12362;50.004;8.006;2022-11-20T14:14:59;99945.34;;;7.28;100.00
24230;BME280;12362;50.004;8.006;2022-11-20T14:17:32;99940.94;;;7.30;100.00
24230;BME280;12362;50.004;8.006;2022-11-20T14:20:00;99937.00;;;7.21;100.00
24230;BME280;12362;50.004;8.006;2022-11-20T14:22:27;99933.38;;;7.06;100.00
24230;BME280;12362;50.004;8.006;2022-11-20T14:27:38;99925.91;;;7.19;100.00
24230;BME280;12362;50.004;8.006;2022-11-20T14:30:04;99933.94;;;7.14;100.00
24230;BME280;12362;50.004;8.006;2022-11-20T14:32:31;99931.97;;;7.18;100.00
24230;BME280;12362;50.004;8.006;2022-11-20T14:35:06;99932.69;;;7.22;100.00
24230;BME280;12362;50.004;8.006;2022-11-20T14:37:37;99935.44;;;7.18;100.00